Terminal Aerodrome Forecast
Issued by NWS

Home | Current Version | Previous Version | Text Only | Print | Product List | Glossary On
Versions: 1 2 3 4 5 6 7 8 9 10 11 12 13 14 15 16 17 18 19 20 21 22 23 24 25 26 27 28 29 30 31
104
FTUS46 KEKA 261120
TAFCEC
TAF
KCEC 261120Z 2612/2712 17010KT P6SM VCSH BKN040 BKN060
     FM261300 16015KT P6SM -RA SCT025 OVC040
     FM261500 15018G25KT P6SM -RA OVC040
     FM261800 17020G28KT P6SM -RA OVC035 WS020/18045KT
     FM262100 18012KT 4SM -RA BR OVC025
     FM270000 18008KT 6SM -RA BR OVC035
     FM270600 19005KT P6SM OVC050=

USA.gov is the U.S. government's official web portal to all federal, state and local government web resources and services.